AMS weather

Amsterdam Airport Schiphol
Amsterdam, Noord-Holland, Netherlands

Public forecast

Using degrees Celsius for public forecast. Weather courtesy of forecast.io.

METAR (pilot weather report)

Retrieved 2018/08/17 09:25 UTC (30 minutes ago):

EHAM 170925Z 30005KT 230V360 9999 FEW035 21/12 Q1018 NOSIG

TAF (pilot weather forecast)

Retrieved 2018/08/17 06:28 UTC (3 hours ago):

TAF EHAM 170500Z 1706/1812 31004KT 9999 SCT020 BECMG 1710/1712 28009KT BECMG 1718/1721 19005KT BECMG 1808/1810 23012KT